Startpagina
METAR-TAF:

METAR-TAF

Vliegvelden :

Amman, Jordanië

breedte: 31-59N, lengte: 035-59E, hoogte: 767 m

Actueel weer

Dit bericht is 25 minuten geleden gemaakt, om 06:00 UTC
Wind 5 kt uit het noorden
Temperatuur 23°C
Vochtigheid 50%
Druk 1013 hPa
Zicht: 8000 m

METAR: OJAM 190600Z 01005KT 8000 NSC 23/12 Q1013 NOSIG

Tijdstip: 09:25 (06:25 UTC)

Verwachting

Dit bericht is 1 uur en het 35 minuten geleden gemaakt, om 04:50 UTC
Verwachting geldig van 19 om 06 UTC tot 20 om 12 UTC
Wind 2 kt uit variabele richting
Zicht: 5000 m
Weinig wolken op 3000 ft
Heiigheid
Wijzigt naar
van 19 om 10 UTC tot 19 om 17 UTC
Wind 12 kt uit het westen

TAF: OJAM 190450Z 1906/2012 VRB02KT 5000 HZ FEW030 BECMG 1910/1917 27012KT

Waarnemingen en weersverwachtingen van meer dan 4000 vliegvelden (METAR en TAF).

De beschikbare stations zijn de gele en rode punten op de kaart.

Ga met uw muis naar het station om de naam te zien.

Klik dan om waarnemingen en weersverwachtingen te zien.

kaart wijzigen: klik op de groene knoppen met een zwart kruis om in te zoomen, op de groene knop met een streepje om uit te zoomen of op de groene pijlen voor aangrenzende kaarten.


METAR-TAF: